Flight Track Log - Related Links

Times and Time Zones

All times are in EDT time to prevent confusion due to time zone crossing. See the SLI2111 flight status page for this flight to view local times or setup timezone preferences in your user account.

Time Position Orientation Groundspeed Altitude Reporting Facility
EDT Latitude Longitude Course Direction KTS MPH feet Rate Location/Type
Fri 08:14:00 AM 32.3220 -114.8559 133° Southeast  Level Estimated
Fri 08:15:00 AM 32.2446 -114.7599 134° Southeast  Level Estimated
Fri 08:16:00 AM 32.1672 -114.6640 134° Southeast  Level Estimated
Fri 08:17:00 AM 32.0897 -114.5683 134° Southeast  Level Estimated
Fri 08:18:00 AM 32.0122 -114.4728 134° Southeast  Level Estimated
Fri 08:19:00 AM 31.9345 -114.3774 134° Southeast  Level Estimated
Fri 08:20:00 AM 31.8568 -114.2822 134° Southeast  Level Estimated
Fri 08:21:00 AM 31.7790 -114.1872 134° Southeast  Level Estimated
Fri 08:22:00 AM 31.7012 -114.0923 134° Southeast  Level Estimated
Fri 08:23:00 AM 31.6233 -113.9976 134° Southeast  Level Estimated
Fri 08:24:00 AM 31.5453 -113.9030 134° Southeast  Level Estimated
Fri 08:25:00 AM 31.4672 -113.8086 134° Southeast  Level Estimated
Fri 08:26:00 AM 31.3891 -113.7143 134° Southeast  Level Estimated
Fri 08:27:00 AM 31.3109 -113.6202 134° Southeast  Level Estimated
Fri 08:28:00 AM 31.2326 -113.5263 134° Southeast  Level Estimated
Fri 08:29:00 AM 31.1543 -113.4325 134° Southeast  Level Estimated
Fri 08:30:00 AM 31.0759 -113.3389 134° Southeast  Level Estimated
Fri 08:31:00 AM 30.9974 -113.2454 134° Southeast  Level Estimated
Fri 08:32:00 AM 30.9189 -113.1520 134° Southeast  Level Estimated
Fri 08:33:00 AM 30.8403 -113.0589 134° Southeast  Level Estimated
Fri 08:34:00 AM 30.7616 -112.9659 135° Southeast  Level Estimated
Fri 08:35:00 AM 30.6829 -112.8730 135° Southeast  Level Estimated
Fri 08:36:00 AM 30.6041 -112.7803 135° Southeast  Level Estimated
Fri 08:37:00 AM 30.5252 -112.6877 135° Southeast  Level Estimated
Fri 08:38:00 AM 30.4463 -112.5953 135° Southeast  Level Estimated
Fri 08:39:00 AM 30.3673 -112.5030 135° Southeast  Level Estimated
Fri 08:40:00 AM 30.2882 -112.4109 135° Southeast  Level Estimated
Fri 08:41:00 AM 30.2091 -112.3189 135° Southeast  Level Estimated
Fri 08:42:00 AM 30.1299 -112.2271 135° Southeast  Level Estimated
Fri 08:43:00 AM 30.0507 -112.1354 135° Southeast  Level Estimated
Fri 08:44:00 AM 29.9713 -112.0439 135° Southeast  Level Estimated
Fri 08:45:00 AM 29.8920 -111.9525 135° Southeast  Level Estimated
Fri 08:46:00 AM 29.8125 -111.8613 135° Southeast  Level Estimated
Fri 08:47:00 AM 29.7330 -111.7702 135° Southeast  Level Estimated
Fri 08:48:00 AM 29.6534 -111.6792 135° Southeast  Level Estimated
Fri 08:49:00 AM 29.5738 -111.5884 135° Southeast  Level Estimated
Fri 08:50:00 AM 29.4941 -111.4978 135° Southeast  Level Estimated
Fri 08:51:00 AM 29.4144 -111.4073 135° Southeast  Level Estimated
Fri 08:52:00 AM 29.3346 -111.3169 135° Southeast  Level Estimated
Fri 08:53:00 AM 29.2547 -111.2267 135° Southeast  Level Estimated
Fri 08:54:00 AM 29.1747 -111.1366 135° Southeast  Level Estimated
Fri 08:55:00 AM 29.0959 -111.0479 135° Southeast  Level Estimated
Fri 08:56:00 AM 29.0959 -111.0479 139° Southeast  Level Estimated
Fri 08:57:00 AM 29.0959 -111.0479 139° Southeast  Level Estimated
Fri 08:58:00 AM 29.0959 -111.0479 139° Southeast  Level Estimated
Fri 08:59:00 AM 29.0959 -111.0479 139° Southeast  Level Estimated
Fri 09:00:00 AM 29.0959 -111.0479 139° Southeast  Level Estimated
Fri 09:01:00 AM 29.0959 -111.0479 139° Southeast  Level Estimated
Fri 09:02:00 AM 29.0959 -111.0479 139° Southeast  Level Estimated
Fri 09:03:00 AM 29.0959 -111.0479 139° Southeast  Level Estimated
Fri 09:04:00 AM 29.0959 -111.0479 139° Southeast  Level Estimated
Fri 09:05:00 AM 29.0959 -111.0479 139° Southeast  Level Estimated
Fri 09:06:00 AM 29.0959 -111.0479 139° Southeast  Level Estimated
Fri 09:07:00 AM 29.0959 -111.0479 139° Southeast  Level Estimated

Login

Don't have an account? Register now (free) for customized features, flight alerts, and more!